createdAt,value
2019-04-10T00:00:10.638Z,58.07
2019-04-10T00:02:40.561Z,59.07
2019-04-10T00:05:09.710Z,58.13
2019-04-10T00:07:39.603Z,55.77
2019-04-10T00:10:07.745Z,55.03
2019-04-10T00:12:33.931Z,54.70
2019-04-10T00:15:18.814Z,57.67
2019-04-10T00:17:45.127Z,60.70
2019-04-10T00:20:18.380Z,60.23
2019-04-10T00:22:44.999Z,59.63
2019-04-10T00:25:12.674Z,60.60
2019-04-10T00:27:38.959Z,59.80
2019-04-10T00:30:13.235Z,63.23
2019-04-10T00:32:41.303Z,57.80
2019-04-10T00:35:12.928Z,61.90
2019-04-10T00:37:47.191Z,56.90
2019-04-10T00:40:15.333Z,58.00
2019-04-10T00:42:43.569Z,69.47
2019-04-10T00:45:17.391Z,60.57
2019-04-10T00:47:48.897Z,62.90
2019-04-10T00:50:23.113Z,61.27
2019-04-10T00:52:57.357Z,57.93
2019-04-10T00:55:25.815Z,64.60
2019-04-10T00:57:56.104Z,66.80
2019-04-10T01:00:25.540Z,59.60
2019-04-10T01:03:07.584Z,66.63
2019-04-10T01:05:33.780Z,62.83
2019-04-10T01:08:00.194Z,63.47
2019-04-10T01:10:36.605Z,63.30
2019-04-10T01:13:08.638Z,60.13
2019-04-10T01:15:36.463Z,60.20
2019-04-10T01:18:02.629Z,64.43
2019-04-10T01:20:34.542Z,59.07
2019-04-10T01:23:06.010Z,58.20
2019-04-10T01:25:40.871Z,58.07
2019-04-10T01:28:19.363Z,61.30
2019-04-10T01:30:48.653Z,52.60
2019-04-10T01:33:20.688Z,60.97
2019-04-10T01:35:43.002Z,49.90
2019-04-10T01:38:18.301Z,51.67
2019-04-10T01:40:53.146Z,54.73
2019-04-10T01:43:20.654Z,52.00
2019-04-10T01:45:49.712Z,48.43
2019-04-10T01:48:37.204Z,47.50
2019-04-10T01:51:04.258Z,45.17
2019-04-10T01:53:31.144Z,46.83
2019-04-10T01:55:57.635Z,44.87
2019-04-10T01:58:23.999Z,45.60
2019-04-10T02:00:54.235Z,41.87
2019-04-10T02:03:23.461Z,47.10
2019-04-10T02:05:52.782Z,43.37
2019-04-10T02:08:27.786Z,41.60
2019-04-10T02:10:53.980Z,41.60
2019-04-10T02:13:29.695Z,41.77
2019-04-10T02:15:56.671Z,41.70
2019-04-10T02:18:23.507Z,40.27
2019-04-10T02:20:49.802Z,42.90
2019-04-10T02:23:16.907Z,45.50
2019-04-10T02:25:45.155Z,40.80
2019-04-10T02:28:18.636Z,41.67
2019-04-10T02:30:45.966Z,37.27
2019-04-10T02:33:17.640Z,43.20
2019-04-10T02:35:45.267Z,39.17
2019-04-10T02:38:32.693Z,37.07
2019-04-10T02:40:43.569Z,34.80
2019-04-10T02:43:12.438Z,36.33
2019-04-10T02:45:47.038Z,32.73
2019-04-10T02:48:15.063Z,36.63
2019-04-10T02:50:43.228Z,35.90
2019-04-10T02:53:15.317Z,32.40
2019-04-10T02:55:49.259Z,32.93
2019-04-10T02:58:18.427Z,31.07
2019-04-10T03:00:54.857Z,29.70
2019-04-10T03:03:31.818Z,30.80
2019-04-10T03:06:00.902Z,28.80
2019-04-10T03:08:46.794Z,29.30
2019-04-10T03:11:02.675Z,31.27
2019-04-10T03:13:27.564Z,26.17
2019-04-10T03:15:59.770Z,27.53
2019-04-10T03:18:27.150Z,25.73
2019-04-10T03:21:00.009Z,29.53
2019-04-10T03:23:32.193Z,31.27
2019-04-10T03:26:01.497Z,26.70
2019-04-10T03:28:31.997Z,28.23
2019-04-10T03:31:02.831Z,31.80
2019-04-10T03:33:37.499Z,32.43
2019-04-10T03:36:03.098Z,27.00
2019-04-10T03:38:49.692Z,30.80
2019-04-10T03:41:06.045Z,31.40
2019-04-10T03:43:34.410Z,28.30
2019-04-10T03:46:03.342Z,27.67
2019-04-10T03:48:33.476Z,31.27
2019-04-10T03:51:02.013Z,33.43
2019-04-10T03:53:29.913Z,25.20
2019-04-10T03:55:57.178Z,28.27
2019-04-10T03:58:29.431Z,28.37
2019-04-10T04:00:55.619Z,27.60
2019-04-10T04:03:22.909Z,26.80
2019-04-10T04:05:53.180Z,27.17
2019-04-10T04:08:22.295Z,29.83
2019-04-10T04:10:53.131Z,26.07
2019-04-10T04:13:21.656Z,26.10
2019-04-10T04:15:50.601Z,25.90
2019-04-10T04:18:19.347Z,28.00
2019-04-10T04:20:50.902Z,28.37
2019-04-10T04:23:19.431Z,28.30
2019-04-10T04:25:48.316Z,27.10
2019-04-10T04:28:27.903Z,32.40
2019-04-10T04:30:56.812Z,29.43
2019-04-10T04:33:23.289Z,31.50
2019-04-10T04:35:55.386Z,28.27
2019-04-10T04:38:25.628Z,29.20
2019-04-10T04:40:52.877Z,27.37
2019-04-10T04:43:25.185Z,24.93
2019-04-10T04:45:55.428Z,30.03
2019-04-10T04:48:29.374Z,26.80
2019-04-10T04:51:04.002Z,27.10
2019-04-10T04:53:36.402Z,26.80
2019-04-10T04:55:59.932Z,25.60
2019-04-10T04:58:31.213Z,24.90
2019-04-10T05:00:58.481Z,26.53
2019-04-10T05:03:28.981Z,24.63
2019-04-10T05:05:56.192Z,23.77
2019-04-10T05:08:28.343Z,32.07
2019-04-10T05:10:56.039Z,27.00
2019-04-10T05:13:24.293Z,27.60
2019-04-10T05:15:51.355Z,29.00
2019-04-10T05:18:21.268Z,28.03
2019-04-10T05:20:50.482Z,29.83
2019-04-10T05:23:22.449Z,30.43
2019-04-10T05:25:53.961Z,27.70
2019-04-10T05:28:31.061Z,27.40
2019-04-10T05:31:01.448Z,27.43
2019-04-10T05:33:33.191Z,31.63
2019-04-10T05:36:02.733Z,29.37
2019-04-10T05:38:35.636Z,31.90
2019-04-10T05:41:04.698Z,32.87
2019-04-10T05:43:36.932Z,26.40
2019-04-10T05:46:08.393Z,29.43
2019-04-10T05:48:36.644Z,27.27
2019-04-10T05:51:12.570Z,26.93
2019-04-10T05:53:40.903Z,31.47
2019-04-10T05:56:16.075Z,57.93
2019-04-10T05:58:46.895Z,87.50
2019-04-10T06:01:13.559Z,55.73
2019-04-10T06:03:47.155Z,51.13
2019-04-10T06:06:22.210Z,42.77
2019-04-10T06:08:58.363Z,47.87
2019-04-10T06:11:28.845Z,54.23
2019-04-10T06:13:59.047Z,52.93
2019-04-10T06:16:28.259Z,40.20
2019-04-10T06:19:07.696Z,34.63
2019-04-10T06:21:37.637Z,34.73
2019-04-10T06:24:09.829Z,41.47
2019-04-10T06:26:37.573Z,36.57
2019-04-10T06:29:07.124Z,28.53
2019-04-10T06:31:34.266Z,34.20
2019-04-10T06:34:11.149Z,28.13
2019-04-10T06:36:39.662Z,30.17
2019-04-10T06:39:08.743Z,31.50
2019-04-10T06:41:38.955Z,38.73
2019-04-10T06:44:05.819Z,29.13
2019-04-10T06:46:37.958Z,35.23
2019-04-10T06:49:05.599Z,33.17
2019-04-10T06:51:33.433Z,33.50
2019-04-10T06:54:12.641Z,37.67
2019-04-10T06:56:41.523Z,32.93
2019-04-10T06:59:08.741Z,35.93
2019-04-10T07:01:44.366Z,36.40
2019-04-10T07:04:10.116Z,33.37
2019-04-10T07:06:55.954Z,34.50
2019-04-10T07:09:24.538Z,37.10
2019-04-10T07:11:56.819Z,31.57
2019-04-10T07:14:35.149Z,38.93
2019-04-10T07:17:06.973Z,36.17
2019-04-10T07:19:43.938Z,34.70
2019-04-10T07:22:14.265Z,31.63
2019-04-10T07:24:42.652Z,35.00
2019-04-10T07:27:16.712Z,34.63
2019-04-10T07:29:44.649Z,32.57
2019-04-10T07:32:13.647Z,34.50
2019-04-10T07:34:46.739Z,33.57
2019-04-10T07:37:17.672Z,34.47
2019-04-10T07:39:55.081Z,34.37
2019-04-10T07:42:31.273Z,38.80
2019-04-10T07:45:06.566Z,31.77
2019-04-10T07:47:39.905Z,35.50
2019-04-10T07:50:08.812Z,37.13
2019-04-10T07:52:38.271Z,33.43
2019-04-10T07:55:06.742Z,36.37
2019-04-10T07:57:51.758Z,32.90
2019-04-10T08:00:25.050Z,35.80
2019-04-10T08:02:51.244Z,33.47
2019-04-10T08:05:19.468Z,34.30
2019-04-10T08:07:53.368Z,33.57
2019-04-10T08:10:24.165Z,35.03
2019-04-10T08:12:54.175Z,34.60
2019-04-10T08:15:25.270Z,33.27
2019-04-10T08:18:00.695Z,35.20
2019-04-10T08:20:28.592Z,32.20
2019-04-10T08:22:55.331Z,32.40
2019-04-10T08:25:35.393Z,33.37
2019-04-10T08:28:04.081Z,33.47
2019-04-10T08:30:34.109Z,34.07
2019-04-10T08:33:11.958Z,31.60
2019-04-10T08:35:40.158Z,29.87
2019-04-10T08:38:09.681Z,33.20
2019-04-10T08:40:43.902Z,35.43
2019-04-10T08:43:13.853Z,31.97
2019-04-10T08:45:48.098Z,32.23
2019-04-10T08:48:12.042Z,32.73
2019-04-10T08:50:39.254Z,32.50
2019-04-10T08:53:07.594Z,27.83
2019-04-10T08:55:40.756Z,36.70
2019-04-10T08:58:10.310Z,31.53
2019-04-10T09:00:37.706Z,38.70
2019-04-10T09:03:08.793Z,27.13
2019-04-10T09:05:45.052Z,33.00
2019-04-10T09:08:14.946Z,32.10
2019-04-10T09:10:41.213Z,30.80
2019-04-10T09:13:16.769Z,29.73
2019-04-10T09:15:47.972Z,35.03
2019-04-10T09:18:16.870Z,32.10
2019-04-10T09:20:44.474Z,31.90
2019-04-10T09:23:40.994Z,29.50
2019-04-10T09:25:47.555Z,32.23
2019-04-10T09:28:16.068Z,29.33
2019-04-10T09:30:45.465Z,33.97
2019-04-10T09:33:26.025Z,34.50
2019-04-10T09:35:50.941Z,35.33
2019-04-10T09:38:17.043Z,29.87
2019-04-10T09:40:44.612Z,30.70
2019-04-10T09:43:17.759Z,32.33
2019-04-10T09:45:45.856Z,28.20
2019-04-10T09:48:13.103Z,32.33
2019-04-10T09:50:46.626Z,31.60
2019-04-10T09:53:22.974Z,30.50
2019-04-10T09:55:52.458Z,29.73
2019-04-10T09:58:33.963Z,28.90
2019-04-10T10:01:06.659Z,29.40
2019-04-10T10:03:40.135Z,29.80
2019-04-10T10:06:25.123Z,29.73
2019-04-10T10:08:48.776Z,33.10
2019-04-10T10:11:18.435Z,29.20
2019-04-10T10:13:54.288Z,28.90
2019-04-10T10:16:23.865Z,32.47
2019-04-10T10:18:51.977Z,34.03
2019-04-10T10:21:28.813Z,32.87
2019-04-10T10:23:58.232Z,32.43
2019-04-10T10:26:28.072Z,34.43
2019-04-10T10:29:04.814Z,25.80
2019-04-10T10:31:43.019Z,32.73
2019-04-10T10:34:18.464Z,29.07
2019-04-10T10:36:52.871Z,32.00
2019-04-10T10:39:19.176Z,30.87
2019-04-10T10:41:51.097Z,30.03
2019-04-10T10:44:27.463Z,27.60
2019-04-10T10:46:55.706Z,32.10
2019-04-10T10:49:22.776Z,26.60
2019-04-10T10:51:48.992Z,35.17
2019-04-10T10:54:15.057Z,29.23
2019-04-10T10:56:41.143Z,28.93
2019-04-10T10:59:07.377Z,28.30
2019-04-10T11:01:33.762Z,29.33
2019-04-10T11:04:04.988Z,26.30
2019-04-10T11:06:33.669Z,26.10
2019-04-10T11:08:59.941Z,25.77
2019-04-10T11:11:36.976Z,31.63
2019-04-10T11:14:15.120Z,28.50
2019-04-10T11:16:56.321Z,24.13
2019-04-10T11:19:31.229Z,28.50
2019-04-10T11:21:58.786Z,26.77
2019-04-10T11:24:35.652Z,25.37
2019-04-10T11:27:09.871Z,27.33
2019-04-10T11:29:42.735Z,24.53
2019-04-10T11:32:33.936Z,26.80
2019-04-10T11:35:03.285Z,24.43
2019-04-10T11:37:49.285Z,25.93
2019-04-10T11:40:17.908Z,22.83
2019-04-10T11:42:46.946Z,28.37
2019-04-10T11:45:18.590Z,32.40
2019-04-10T11:47:45.005Z,27.73
2019-04-10T11:50:21.620Z,26.13
2019-04-10T11:52:55.978Z,25.97
2019-04-10T11:55:29.783Z,26.00
2019-04-10T11:58:00.093Z,25.10
2019-04-10T12:00:50.314Z,26.50
2019-04-10T12:03:15.906Z,25.47
2019-04-10T12:05:55.191Z,23.80
2019-04-10T12:08:46.400Z,30.43
2019-04-10T12:13:26.150Z,24.00
2019-04-10T12:16:12.558Z,22.30
2019-04-10T12:18:42.582Z,23.90
2019-04-10T12:21:09.808Z,26.33
2019-04-10T12:23:38.942Z,20.93
2019-04-10T12:26:07.499Z,24.07
2019-04-10T12:28:34.611Z,27.83
2019-04-10T12:31:02.478Z,21.90
2019-04-10T12:33:31.748Z,23.40
2019-04-10T12:35:58.240Z,24.57
2019-04-10T12:38:25.573Z,25.20
2019-04-10T12:40:55.333Z,20.87
2019-04-10T12:43:25.906Z,20.63
2019-04-10T12:45:53.160Z,21.27
2019-04-10T12:48:28.518Z,24.80
2019-04-10T12:50:57.169Z,29.13
2019-04-10T12:53:24.509Z,24.00
2019-04-10T12:55:51.797Z,23.83
2019-04-10T12:58:19.313Z,24.30
2019-04-10T13:00:59.060Z,22.73
2019-04-10T13:03:27.281Z,22.40
2019-04-10T13:06:07.436Z,28.43
2019-04-10T13:08:52.518Z,23.67
2019-04-10T13:11:10.226Z,23.70
2019-04-10T13:13:38.904Z,23.70
2019-04-10T13:16:06.394Z,21.40
2019-04-10T13:18:36.922Z,21.97
2019-04-10T13:21:04.281Z,20.80
2019-04-10T13:23:39.619Z,20.43
2019-04-10T13:26:17.618Z,21.50
2019-04-10T13:28:44.054Z,21.50
2019-04-10T13:31:17.980Z,21.10
2019-04-10T13:33:45.015Z,24.87
2019-04-10T13:36:17.587Z,17.97
2019-04-10T13:38:44.404Z,19.07
2019-04-10T13:41:21.383Z,21.70
2019-04-10T13:44:04.535Z,21.43
2019-04-10T13:46:49.139Z,21.57
2019-04-10T13:49:15.204Z,24.83
2019-04-10T13:51:50.285Z,21.97
2019-04-10T13:54:22.773Z,20.57
2019-04-10T13:57:04.044Z,20.93
2019-04-10T13:59:31.277Z,19.30
2019-04-10T14:02:03.308Z,19.43
2019-04-10T14:04:44.546Z,18.80
2019-04-10T14:07:13.259Z,19.20
2019-04-10T14:09:47.091Z,21.67
2019-04-10T14:12:14.476Z,22.93
2019-04-10T14:14:45.428Z,22.50
2019-04-10T14:17:14.605Z,19.30
2019-04-10T14:19:42.020Z,23.60
2019-04-10T14:22:14.025Z,19.97
2019-04-10T14:24:48.946Z,19.07
2019-04-10T14:27:24.464Z,24.43
2019-04-10T14:30:00.814Z,23.43
2019-04-10T14:32:29.966Z,23.00
2019-04-10T14:34:56.384Z,21.73
2019-04-10T14:37:23.909Z,18.60
2019-04-10T14:39:52.280Z,20.10
2019-04-10T14:42:20.339Z,25.33
2019-04-10T14:44:59.558Z,21.40
2019-04-10T14:47:32.241Z,23.83
2019-04-10T14:50:13.721Z,29.37
2019-04-10T14:52:43.335Z,23.40
2019-04-10T14:55:20.533Z,22.47
2019-04-10T14:57:48.433Z,21.07
2019-04-10T15:00:33.357Z,22.90
2019-04-10T15:03:00.624Z,23.90
2019-04-10T15:05:44.892Z,21.70
2019-04-10T15:08:07.163Z,21.10
2019-04-10T15:10:33.444Z,22.10
2019-04-10T15:13:09.049Z,23.47
2019-04-10T15:15:38.726Z,29.00
2019-04-10T15:18:04.990Z,21.03
2019-04-10T15:20:39.692Z,23.70
2019-04-10T15:23:10.042Z,22.90
2019-04-10T15:25:49.306Z,23.00
2019-04-10T15:28:20.367Z,25.03
2019-04-10T15:30:59.883Z,21.87
2019-04-10T15:33:29.214Z,23.07
2019-04-10T15:35:57.606Z,31.53
2019-04-10T15:38:30.368Z,20.00
2019-04-10T15:41:02.960Z,19.90
2019-04-10T15:43:29.440Z,20.93
2019-04-10T15:46:02.331Z,21.70
2019-04-10T15:48:35.622Z,20.67
2019-04-10T15:51:03.594Z,20.70
2019-04-10T15:53:32.184Z,21.13
2019-04-10T15:56:07.570Z,22.10
2019-04-10T15:58:53.169Z,20.77
2019-04-10T16:01:21.660Z,22.70
2019-04-10T16:03:50.597Z,21.03
2019-04-10T16:06:17.488Z,20.93
2019-04-10T16:08:46.495Z,23.23
2019-04-10T16:11:21.498Z,21.93
2019-04-10T16:13:53.234Z,21.47
2019-04-10T16:16:25.421Z,20.00
2019-04-10T16:18:53.501Z,20.20
2019-04-10T16:21:20.567Z,20.90
2019-04-10T16:24:00.473Z,20.77
2019-04-10T16:26:29.223Z,21.67
2019-04-10T16:29:02.027Z,24.87
2019-04-10T16:31:28.302Z,21.83
2019-04-10T16:33:56.714Z,23.50
2019-04-10T16:36:23.457Z,27.37
2019-04-10T16:38:51.794Z,34.47
2019-04-10T16:41:19.443Z,25.03
2019-04-10T16:43:46.686Z,33.03
2019-04-10T16:46:13.269Z,23.10
2019-04-10T16:48:40.018Z,24.57
2019-04-10T16:51:06.628Z,24.83
2019-04-10T16:53:32.713Z,25.53
2019-04-10T16:55:59.099Z,23.13
2019-04-10T16:58:27.816Z,21.10
2019-04-10T17:00:54.020Z,21.00
2019-04-10T17:03:20.206Z,20.50
2019-04-10T17:05:46.316Z,30.10
2019-04-10T17:08:16.774Z,22.37
2019-04-10T17:10:52.583Z,23.03
2019-04-10T17:13:18.800Z,23.13
2019-04-10T17:15:48.973Z,22.37
2019-04-10T17:18:19.076Z,24.10
2019-04-10T17:20:45.061Z,22.30
2019-04-10T17:23:13.292Z,23.60
2019-04-10T17:25:40.245Z,26.17
2019-04-10T17:28:06.369Z,24.07
2019-04-10T17:30:33.781Z,21.67
2019-04-10T17:33:02.726Z,24.50
2019-04-10T17:35:31.725Z,21.30
2019-04-10T17:38:02.411Z,22.73
2019-04-10T17:40:35.436Z,30.43
2019-04-10T17:42:58.869Z,28.73
2019-04-10T17:45:29.208Z,23.30
2019-04-10T17:48:05.194Z,24.40
2019-04-10T17:50:39.350Z,24.57
2019-04-10T17:53:18.483Z,27.30
2019-04-10T17:55:47.360Z,26.60
2019-04-10T17:58:17.107Z,32.43
2019-04-10T18:00:51.821Z,22.50
2019-04-10T18:03:21.292Z,26.20
2019-04-10T18:05:55.128Z,22.20
2019-04-10T18:08:28.443Z,22.60
2019-04-10T18:11:06.339Z,31.43
2019-04-10T18:13:36.726Z,25.50
2019-04-10T18:16:09.172Z,23.20
2019-04-10T18:18:42.596Z,22.93
2019-04-10T18:21:12.967Z,25.13
2019-04-10T18:23:45.533Z,19.93
2019-04-10T18:26:14.759Z,21.90
2019-04-10T18:28:50.564Z,20.53
2019-04-10T18:31:36.802Z,20.00
2019-04-10T18:34:10.959Z,23.93
2019-04-10T18:36:54.543Z,21.40
2019-04-10T18:39:41.371Z,22.73
2019-04-10T18:42:19.342Z,22.77
2019-04-10T18:44:59.437Z,22.63
2019-04-10T18:47:30.886Z,22.50
2019-04-10T18:50:04.669Z,22.30
2019-04-10T18:52:32.829Z,21.03
2019-04-10T18:55:01.626Z,23.63
2019-04-10T18:57:39.366Z,21.40
2019-04-10T19:00:24.041Z,19.23
2019-04-10T19:03:07.549Z,21.17
2019-04-10T19:06:02.604Z,20.43
2019-04-10T19:08:32.171Z,22.40
2019-04-10T19:11:14.812Z,20.70
2019-04-10T19:13:38.639Z,20.03
2019-04-10T19:16:12.985Z,21.13
2019-04-10T19:18:41.085Z,20.13
2019-04-10T19:21:08.346Z,20.37
2019-04-10T19:23:43.460Z,21.63
2019-04-10T19:26:15.495Z,18.63
2019-04-10T19:28:46.513Z,22.10
2019-04-10T19:31:23.035Z,18.47
2019-04-10T19:33:59.179Z,20.30
2019-04-10T19:36:50.160Z,18.93
2019-04-10T19:39:20.314Z,21.70
2019-04-10T19:41:57.564Z,19.90
2019-04-10T19:44:25.088Z,24.50
2019-04-10T19:46:58.745Z,21.30
2019-04-10T19:49:35.000Z,17.70
2019-04-10T19:52:04.581Z,17.40
2019-04-10T19:54:42.964Z,19.43
2019-04-10T19:57:13.141Z,19.53
2019-04-10T19:59:44.083Z,18.50
2019-04-10T20:02:22.567Z,27.70
2019-04-10T20:04:52.769Z,21.00
2019-04-10T20:07:22.853Z,22.87
2019-04-10T20:09:51.095Z,18.67
2019-04-10T20:12:20.267Z,18.00
2019-04-10T20:14:53.560Z,15.90
2019-04-10T20:17:19.946Z,20.70
2019-04-10T20:19:54.160Z,17.70
2019-04-10T20:22:23.027Z,19.23
2019-04-10T20:24:53.500Z,17.20
2019-04-10T20:27:21.842Z,18.83
2019-04-10T20:29:57.253Z,16.73
2019-04-10T20:32:30.675Z,16.30
2019-04-10T20:34:58.026Z,18.97
2019-04-10T20:37:25.550Z,20.23
2019-04-10T20:39:55.875Z,17.43
2019-04-10T20:42:24.084Z,17.80
2019-04-10T20:44:53.360Z,17.57
2019-04-10T20:47:22.599Z,16.33
2019-04-10T20:49:51.165Z,18.53
2019-04-10T20:52:17.937Z,17.93
2019-04-10T20:54:53.368Z,19.63
2019-04-10T20:57:21.463Z,19.53
2019-04-10T20:59:48.903Z,18.43
2019-04-10T21:02:22.452Z,18.30
2019-04-10T21:05:06.331Z,18.43
2019-04-10T21:07:39.614Z,18.90
2019-04-10T21:10:15.290Z,18.63
2019-04-10T21:12:44.726Z,16.93
2019-04-10T21:15:11.264Z,18.70
2019-04-10T21:17:43.437Z,17.50
2019-04-10T21:20:12.838Z,22.27
2019-04-10T21:22:40.464Z,17.93
2019-04-10T21:25:10.204Z,18.07
2019-04-10T21:27:51.719Z,19.73
2019-04-10T21:30:19.946Z,20.73
2019-04-10T21:32:53.895Z,17.97
2019-04-10T21:35:27.110Z,19.20
2019-04-10T21:37:55.403Z,24.43
2019-04-10T21:40:27.180Z,18.90
2019-04-10T21:43:03.639Z,20.90
2019-04-10T21:45:45.574Z,18.37
2019-04-10T21:48:15.063Z,20.53
2019-04-10T21:50:49.655Z,21.80
2019-04-10T21:53:19.943Z,23.43
2019-04-10T21:55:56.892Z,19.53
2019-04-10T21:58:24.111Z,21.50
2019-04-10T22:00:57.082Z,22.43
2019-04-10T22:03:25.364Z,20.83
2019-04-10T22:06:18.122Z,21.30
2019-04-10T22:08:59.062Z,21.50
2019-04-10T22:11:32.895Z,25.40
2019-04-10T22:14:08.848Z,24.53
2019-04-10T22:16:38.021Z,22.73
2019-04-10T22:19:06.127Z,21.23
2019-04-10T22:21:37.588Z,24.90
2019-04-10T22:24:21.585Z,25.70
2019-04-10T22:27:01.604Z,30.80
2019-04-10T22:29:34.742Z,22.90
2019-04-10T22:32:16.313Z,24.10
2019-04-10T22:34:46.584Z,26.67
2019-04-10T22:37:24.089Z,26.43
2019-04-10T22:39:56.719Z,24.80
2019-04-10T22:42:37.350Z,24.50
2019-04-10T22:45:02.463Z,25.07
2019-04-10T22:47:45.288Z,24.73
2019-04-10T22:50:16.734Z,23.13
2019-04-10T22:52:50.773Z,24.90
2019-04-10T22:55:17.875Z,22.83
2019-04-10T22:57:58.896Z,33.33
2019-04-10T23:00:32.710Z,24.43
2019-04-10T23:03:01.239Z,23.83
2019-04-10T23:05:44.758Z,33.47
2019-04-10T23:08:11.571Z,27.83
2019-04-10T23:10:43.472Z,26.03
2019-04-10T23:13:15.994Z,26.13
2019-04-10T23:15:44.325Z,28.90
2019-04-10T23:18:11.515Z,23.50
2019-04-10T23:20:48.099Z,31.10
2019-04-10T23:23:17.635Z,24.87
2019-04-10T23:25:46.783Z,26.93
2019-04-10T23:28:17.619Z,23.03
2019-04-10T23:30:45.452Z,25.30
2019-04-10T23:33:18.343Z,25.57
2019-04-10T23:35:45.805Z,27.37
2019-04-10T23:38:23.448Z,25.00
2019-04-10T23:40:51.431Z,26.20
2019-04-10T23:43:21.073Z,27.73
2019-04-10T23:45:48.818Z,25.60
2019-04-10T23:48:17.033Z,24.87
2019-04-10T23:50:52.867Z,27.03
2019-04-10T23:53:21.127Z,27.23
2019-04-10T23:55:58.812Z,26.33
2019-04-10T23:58:38.032Z,30.77
